sensor_id;sensor_type;location;lat;lon;timestamp;P1;durP1;ratioP1;P2;durP2;ratioP2
59468;SDS011;45277;52.768;18.262;2022-07-09T00:00:38;6.72;;;3.30;;
59468;SDS011;45277;52.768;18.262;2022-07-09T00:02:10;7.82;;;3.70;;
59468;SDS011;45277;52.768;18.262;2022-07-09T00:03:42;7.45;;;3.33;;
59468;SDS011;45277;52.768;18.262;2022-07-09T00:06:55;6.47;;;3.42;;
59468;SDS011;45277;52.768;18.262;2022-07-09T00:08:26;6.65;;;3.90;;
59468;SDS011;45277;52.768;18.262;2022-07-09T00:09:58;5.30;;;3.22;;
59468;SDS011;45277;52.768;18.262;2022-07-09T00:11:30;7.75;;;3.33;;
59468;SDS011;45277;52.768;18.262;2022-07-09T00:13:02;7.28;;;3.53;;
59468;SDS011;45277;52.768;18.262;2022-07-09T00:14:33;4.90;;;3.70;;
59468;SDS011;45277;52.768;18.262;2022-07-09T00:16:06;7.20;;;3.67;;
59468;SDS011;45277;52.768;18.262;2022-07-09T00:17:39;6.30;;;4.10;;
59468;SDS011;45277;52.768;18.262;2022-07-09T00:19:11;9.40;;;4.18;;
59468;SDS011;45277;52.768;18.262;2022-07-09T00:20:43;5.45;;;3.63;;
59468;SDS011;45277;52.768;18.262;2022-07-09T00:22:16;6.82;;;3.88;;
59468;SDS011;45277;52.768;18.262;2022-07-09T00:23:50;8.02;;;4.53;;
59468;SDS011;45277;52.768;18.262;2022-07-09T00:25:21;7.65;;;4.70;;
59468;SDS011;45277;52.768;18.262;2022-07-09T00:26:53;8.98;;;4.22;;
59468;SDS011;45277;52.768;18.262;2022-07-09T00:28:25;8.60;;;4.18;;
59468;SDS011;45277;52.768;18.262;2022-07-09T00:29:56;8.23;;;4.80;;
59468;SDS011;45277;52.768;18.262;2022-07-09T00:31:29;9.15;;;4.85;;
59468;SDS011;45277;52.768;18.262;2022-07-09T00:33:01;10.40;;;4.30;;
59468;SDS011;45277;52.768;18.262;2022-07-09T00:34:34;6.63;;;4.68;;
59468;SDS011;45277;52.768;18.262;2022-07-09T00:36:06;10.30;;;4.55;;
59468;SDS011;45277;52.768;18.262;2022-07-09T00:37:40;8.05;;;4.60;;
59468;SDS011;45277;52.768;18.262;2022-07-09T00:39:12;11.85;;;5.25;;
59468;SDS011;45277;52.768;18.262;2022-07-09T00:40:45;12.27;;;5.55;;
59468;SDS011;45277;52.768;18.262;2022-07-09T00:42:18;12.80;;;5.90;;
59468;SDS011;45277;52.768;18.262;2022-07-09T00:43:50;13.65;;;6.93;;
59468;SDS011;45277;52.768;18.262;2022-07-09T00:45:24;16.02;;;6.78;;
59468;SDS011;45277;52.768;18.262;2022-07-09T00:46:58;20.58;;;6.20;;
59468;SDS011;45277;52.768;18.262;2022-07-09T00:48:30;13.98;;;6.40;;
59468;SDS011;45277;52.768;18.262;2022-07-09T00:50:02;17.80;;;6.22;;
59468;SDS011;45277;52.768;18.262;2022-07-09T00:51:34;18.27;;;6.22;;
59468;SDS011;45277;52.768;18.262;2022-07-09T00:53:07;13.95;;;5.88;;
59468;SDS011;45277;52.768;18.262;2022-07-09T00:54:41;11.68;;;5.60;;
59468;SDS011;45277;52.768;18.262;2022-07-09T00:56:13;10.15;;;5.57;;
59468;SDS011;45277;52.768;18.262;2022-07-09T00:57:45;10.93;;;5.75;;
59468;SDS011;45277;52.768;18.262;2022-07-09T00:59:18;7.68;;;4.82;;
59468;SDS011;45277;52.768;18.262;2022-07-09T01:00:49;11.73;;;5.57;;
59468;SDS011;45277;52.768;18.262;2022-07-09T01:02:22;8.15;;;4.60;;
59468;SDS011;45277;52.768;18.262;2022-07-09T01:03:54;7.45;;;4.53;;
59468;SDS011;45277;52.768;18.262;2022-07-09T01:05:26;7.22;;;4.63;;
59468;SDS011;45277;52.768;18.262;2022-07-09T01:06:58;8.27;;;4.30;;
59468;SDS011;45277;52.768;18.262;2022-07-09T01:08:33;7.85;;;4.30;;
59468;SDS011;45277;52.768;18.262;2022-07-09T01:10:04;6.53;;;4.43;;
59468;SDS011;45277;52.768;18.262;2022-07-09T01:11:36;9.55;;;4.90;;
59468;SDS011;45277;52.768;18.262;2022-07-09T01:13:08;6.25;;;4.35;;
59468;SDS011;45277;52.768;18.262;2022-07-09T01:14:40;7.97;;;4.70;;
59468;SDS011;45277;52.768;18.262;2022-07-09T01:16:18;8.35;;;4.40;;
59468;SDS011;45277;52.768;18.262;2022-07-09T01:17:51;6.28;;;4.00;;
59468;SDS011;45277;52.768;18.262;2022-07-09T01:19:29;6.47;;;4.18;;
59468;SDS011;45277;52.768;18.262;2022-07-09T01:21:02;5.40;;;4.07;;
59468;SDS011;45277;52.768;18.262;2022-07-09T01:22:34;7.82;;;3.90;;
59468;SDS011;45277;52.768;18.262;2022-07-09T01:24:07;7.07;;;4.00;;
59468;SDS011;45277;52.768;18.262;2022-07-09T01:25:40;7.45;;;4.10;;
59468;SDS011;45277;52.768;18.262;2022-07-09T01:27:14;5.45;;;3.42;;
59468;SDS011;45277;52.768;18.262;2022-07-09T01:28:46;5.82;;;3.92;;
59468;SDS011;45277;52.768;18.262;2022-07-09T01:30:24;5.53;;;3.72;;
59468;SDS011;45277;52.768;18.262;2022-07-09T01:32:04;7.53;;;4.07;;
59468;SDS011;45277;52.768;18.262;2022-07-09T01:33:36;8.55;;;3.90;;
59468;SDS011;45277;52.768;18.262;2022-07-09T01:35:08;5.75;;;3.60;;
59468;SDS011;45277;52.768;18.262;2022-07-09T01:36:40;6.97;;;3.88;;
59468;SDS011;45277;52.768;18.262;2022-07-09T01:38:14;5.43;;;3.63;;
59468;SDS011;45277;52.768;18.262;2022-07-09T01:39:46;6.13;;;4.00;;
59468;SDS011;45277;52.768;18.262;2022-07-09T01:41:22;5.32;;;3.72;;
59468;SDS011;45277;52.768;18.262;2022-07-09T01:42:56;4.97;;;3.80;;
59468;SDS011;45277;52.768;18.262;2022-07-09T01:44:30;5.93;;;3.67;;
59468;SDS011;45277;52.768;18.262;2022-07-09T01:46:03;7.75;;;3.88;;
59468;SDS011;45277;52.768;18.262;2022-07-09T01:47:35;7.85;;;3.78;;
59468;SDS011;45277;52.768;18.262;2022-07-09T01:49:06;8.18;;;3.80;;
59468;SDS011;45277;52.768;18.262;2022-07-09T01:50:52;7.30;;;4.38;;
59468;SDS011;45277;52.768;18.262;2022-07-09T01:52:25;5.85;;;3.65;;
59468;SDS011;45277;52.768;18.262;2022-07-09T01:54:09;7.35;;;4.13;;
59468;SDS011;45277;52.768;18.262;2022-07-09T01:55:40;8.98;;;4.60;;
59468;SDS011;45277;52.768;18.262;2022-07-09T01:57:18;7.68;;;3.90;;
59468;SDS011;45277;52.768;18.262;2022-07-09T01:58:50;6.10;;;4.10;;
59468;SDS011;45277;52.768;18.262;2022-07-09T02:00:28;4.82;;;4.03;;
59468;SDS011;45277;52.768;18.262;2022-07-09T02:02:00;7.82;;;3.95;;
59468;SDS011;45277;52.768;18.262;2022-07-09T02:03:33;8.50;;;4.28;;
59468;SDS011;45277;52.768;18.262;2022-07-09T02:05:07;5.82;;;4.18;;
59468;SDS011;45277;52.768;18.262;2022-07-09T02:06:39;5.20;;;3.70;;
59468;SDS011;45277;52.768;18.262;2022-07-09T02:08:12;7.82;;;4.30;;
59468;SDS011;45277;52.768;18.262;2022-07-09T02:09:43;5.15;;;3.50;;
59468;SDS011;45277;52.768;18.262;2022-07-09T02:11:15;6.03;;;4.15;;
59468;SDS011;45277;52.768;18.262;2022-07-09T02:12:47;5.07;;;3.75;;
59468;SDS011;45277;52.768;18.262;2022-07-09T02:14:19;5.82;;;3.55;;
59468;SDS011;45277;52.768;18.262;2022-07-09T02:15:51;5.30;;;3.90;;
59468;SDS011;45277;52.768;18.262;2022-07-09T02:17:24;6.22;;;3.95;;
59468;SDS011;45277;52.768;18.262;2022-07-09T02:19:03;5.18;;;3.65;;
59468;SDS011;45277;52.768;18.262;2022-07-09T02:20:34;6.68;;;4.40;;
59468;SDS011;45277;52.768;18.262;2022-07-09T02:22:07;8.10;;;4.38;;
59468;SDS011;45277;52.768;18.262;2022-07-09T02:23:40;10.35;;;3.78;;
59468;SDS011;45277;52.768;18.262;2022-07-09T02:25:11;5.78;;;3.72;;
59468;SDS011;45277;52.768;18.262;2022-07-09T02:26:43;8.85;;;4.03;;
59468;SDS011;45277;52.768;18.262;2022-07-09T02:28:16;4.68;;;3.55;;
59468;SDS011;45277;52.768;18.262;2022-07-09T02:29:47;9.93;;;4.18;;
59468;SDS011;45277;52.768;18.262;2022-07-09T02:31:25;7.68;;;3.85;;
59468;SDS011;45277;52.768;18.262;2022-07-09T02:32:59;6.82;;;4.00;;
59468;SDS011;45277;52.768;18.262;2022-07-09T02:34:31;5.60;;;3.90;;
59468;SDS011;45277;52.768;18.262;2022-07-09T02:36:03;7.20;;;4.15;;
59468;SDS011;45277;52.768;18.262;2022-07-09T02:37:37;6.70;;;4.03;;
59468;SDS011;45277;52.768;18.262;2022-07-09T02:39:11;8.73;;;4.35;;
59468;SDS011;45277;52.768;18.262;2022-07-09T02:40:42;7.78;;;4.15;;
59468;SDS011;45277;52.768;18.262;2022-07-09T02:42:15;7.75;;;3.97;;
59468;SDS011;45277;52.768;18.262;2022-07-09T02:43:47;6.47;;;4.35;;
59468;SDS011;45277;52.768;18.262;2022-07-09T02:45:20;8.50;;;4.03;;
59468;SDS011;45277;52.768;18.262;2022-07-09T02:46:52;9.07;;;4.30;;
59468;SDS011;45277;52.768;18.262;2022-07-09T02:48:24;8.93;;;4.40;;
59468;SDS011;45277;52.768;18.262;2022-07-09T02:49:56;5.60;;;3.90;;
59468;SDS011;45277;52.768;18.262;2022-07-09T02:51:27;6.70;;;4.28;;
59468;SDS011;45277;52.768;18.262;2022-07-09T02:52:59;6.07;;;3.65;;
59468;SDS011;45277;52.768;18.262;2022-07-09T02:54:31;6.63;;;3.92;;
59468;SDS011;45277;52.768;18.262;2022-07-09T02:56:04;6.47;;;3.65;;
59468;SDS011;45277;52.768;18.262;2022-07-09T02:57:36;7.90;;;4.47;;
59468;SDS011;45277;52.768;18.262;2022-07-09T02:59:07;11.18;;;4.10;;
59468;SDS011;45277;52.768;18.262;2022-07-09T03:00:40;6.50;;;3.70;;
59468;SDS011;45277;52.768;18.262;2022-07-09T03:02:12;6.03;;;3.95;;
59468;SDS011;45277;52.768;18.262;2022-07-09T03:03:44;6.30;;;4.13;;
59468;SDS011;45277;52.768;18.262;2022-07-09T03:05:16;6.65;;;4.25;;
59468;SDS011;45277;52.768;18.262;2022-07-09T03:06:48;8.50;;;4.20;;
59468;SDS011;45277;52.768;18.262;2022-07-09T03:08:21;5.97;;;3.88;;
59468;SDS011;45277;52.768;18.262;2022-07-09T03:09:54;6.55;;;4.20;;
59468;SDS011;45277;52.768;18.262;2022-07-09T03:11:26;7.50;;;4.05;;
59468;SDS011;45277;52.768;18.262;2022-07-09T03:12:58;9.23;;;4.18;;
59468;SDS011;45277;52.768;18.262;2022-07-09T03:14:30;6.10;;;4.10;;
59468;SDS011;45277;52.768;18.262;2022-07-09T03:16:04;7.68;;;4.32;;
59468;SDS011;45277;52.768;18.262;2022-07-09T03:17:44;7.03;;;3.92;;
59468;SDS011;45277;52.768;18.262;2022-07-09T03:19:17;5.88;;;4.13;;
59468;SDS011;45277;52.768;18.262;2022-07-09T03:20:50;5.70;;;3.95;;
59468;SDS011;45277;52.768;18.262;2022-07-09T03:22:22;6.30;;;4.03;;
59468;SDS011;45277;52.768;18.262;2022-07-09T03:23:56;8.52;;;4.32;;
59468;SDS011;45277;52.768;18.262;2022-07-09T03:25:29;8.25;;;4.70;;
59468;SDS011;45277;52.768;18.262;2022-07-09T03:27:02;9.02;;;4.47;;
59468;SDS011;45277;52.768;18.262;2022-07-09T03:28:34;8.02;;;5.00;;
59468;SDS011;45277;52.768;18.262;2022-07-09T03:30:06;6.80;;;4.22;;
59468;SDS011;45277;52.768;18.262;2022-07-09T03:31:38;8.02;;;4.40;;
59468;SDS011;45277;52.768;18.262;2022-07-09T03:33:12;7.60;;;4.20;;
59468;SDS011;45277;52.768;18.262;2022-07-09T03:34:49;7.55;;;4.38;;
59468;SDS011;45277;52.768;18.262;2022-07-09T03:36:24;10.05;;;4.55;;
59468;SDS011;45277;52.768;18.262;2022-07-09T03:37:55;11.55;;;7.80;;
59468;SDS011;45277;52.768;18.262;2022-07-09T03:39:29;10.02;;;4.95;;
59468;SDS011;45277;52.768;18.262;2022-07-09T03:41:07;12.75;;;5.82;;
59468;SDS011;45277;52.768;18.262;2022-07-09T03:42:38;10.43;;;5.55;;
59468;SDS011;45277;52.768;18.262;2022-07-09T03:44:10;8.93;;;5.00;;
59468;SDS011;45277;52.768;18.262;2022-07-09T03:45:42;11.52;;;7.05;;
59468;SDS011;45277;52.768;18.262;2022-07-09T03:47:15;12.50;;;6.22;;
59468;SDS011;45277;52.768;18.262;2022-07-09T03:48:47;19.38;;;11.80;;
59468;SDS011;45277;52.768;18.262;2022-07-09T03:50:21;18.55;;;10.82;;
59468;SDS011;45277;52.768;18.262;2022-07-09T03:51:53;17.10;;;9.90;;
59468;SDS011;45277;52.768;18.262;2022-07-09T03:53:27;13.27;;;7.57;;
59468;SDS011;45277;52.768;18.262;2022-07-09T03:54:59;11.63;;;8.23;;
59468;SDS011;45277;52.768;18.262;2022-07-09T03:56:31;21.10;;;13.30;;
59468;SDS011;45277;52.768;18.262;2022-07-09T03:58:02;26.23;;;14.38;;
59468;SDS011;45277;52.768;18.262;2022-07-09T03:59:35;22.70;;;12.98;;
59468;SDS011;45277;52.768;18.262;2022-07-09T04:01:06;16.98;;;9.90;;
59468;SDS011;45277;52.768;18.262;2022-07-09T04:02:38;14.88;;;8.57;;
59468;SDS011;45277;52.768;18.262;2022-07-09T04:04:10;15.13;;;8.68;;
59468;SDS011;45277;52.768;18.262;2022-07-09T04:05:41;16.58;;;8.02;;
59468;SDS011;45277;52.768;18.262;2022-07-09T04:07:15;13.13;;;7.65;;
59468;SDS011;45277;52.768;18.262;2022-07-09T04:08:47;18.48;;;9.70;;
59468;SDS011;45277;52.768;18.262;2022-07-09T04:10:18;13.27;;;8.20;;
59468;SDS011;45277;52.768;18.262;2022-07-09T04:11:53;15.50;;;7.05;;
59468;SDS011;45277;52.768;18.262;2022-07-09T04:13:25;13.57;;;7.88;;
59468;SDS011;45277;52.768;18.262;2022-07-09T04:14:56;16.25;;;9.68;;
59468;SDS011;45277;52.768;18.262;2022-07-09T04:16:29;12.93;;;8.50;;
59468;SDS011;45277;52.768;18.262;2022-07-09T04:18:02;13.98;;;8.40;;
59468;SDS011;45277;52.768;18.262;2022-07-09T04:19:33;8.07;;;4.95;;
59468;SDS011;45277;52.768;18.262;2022-07-09T04:21:05;8.82;;;5.57;;
59468;SDS011;45277;52.768;18.262;2022-07-09T04:22:39;9.60;;;5.20;;
59468;SDS011;45277;52.768;18.262;2022-07-09T04:24:11;9.55;;;4.75;;
59468;SDS011;45277;52.768;18.262;2022-07-09T04:25:42;10.13;;;5.82;;
59468;SDS011;45277;52.768;18.262;2022-07-09T04:27:14;13.75;;;8.20;;
59468;SDS011;45277;52.768;18.262;2022-07-09T04:28:47;15.98;;;10.35;;
59468;SDS011;45277;52.768;18.262;2022-07-09T04:30:20;9.10;;;5.60;;
59468;SDS011;45277;52.768;18.262;2022-07-09T04:31:53;12.38;;;4.82;;
59468;SDS011;45277;52.768;18.262;2022-07-09T04:33:26;7.65;;;4.28;;
59468;SDS011;45277;52.768;18.262;2022-07-09T04:34:58;8.82;;;4.35;;
59468;SDS011;45277;52.768;18.262;2022-07-09T04:36:30;12.20;;;6.38;;
59468;SDS011;45277;52.768;18.262;2022-07-09T04:38:02;9.43;;;4.88;;
59468;SDS011;45277;52.768;18.262;2022-07-09T04:39:35;6.10;;;4.00;;
59468;SDS011;45277;52.768;18.262;2022-07-09T04:41:07;11.25;;;3.95;;
59468;SDS011;45277;52.768;18.262;2022-07-09T04:42:39;9.35;;;4.25;;
59468;SDS011;45277;52.768;18.262;2022-07-09T04:44:10;8.40;;;4.43;;
59468;SDS011;45277;52.768;18.262;2022-07-09T04:45:46;7.53;;;4.70;;
59468;SDS011;45277;52.768;18.262;2022-07-09T04:47:18;7.90;;;3.97;;
59468;SDS011;45277;52.768;18.262;2022-07-09T04:48:55;7.93;;;3.70;;
59468;SDS011;45277;52.768;18.262;2022-07-09T04:50:28;6.05;;;4.03;;
59468;SDS011;45277;52.768;18.262;2022-07-09T04:52:00;10.27;;;4.07;;
59468;SDS011;45277;52.768;18.262;2022-07-09T04:53:31;8.50;;;3.88;;
59468;SDS011;45277;52.768;18.262;2022-07-09T04:55:04;6.63;;;3.95;;
59468;SDS011;45277;52.768;18.262;2022-07-09T04:56:39;6.45;;;4.25;;
59468;SDS011;45277;52.768;18.262;2022-07-09T04:58:11;9.48;;;4.35;;
59468;SDS011;45277;52.768;18.262;2022-07-09T04:59:42;6.78;;;4.00;;
59468;SDS011;45277;52.768;18.262;2022-07-09T05:01:14;7.63;;;5.10;;
59468;SDS011;45277;52.768;18.262;2022-07-09T05:02:48;11.13;;;7.10;;
59468;SDS011;45277;52.768;18.262;2022-07-09T05:04:20;12.07;;;8.73;;
59468;SDS011;45277;52.768;18.262;2022-07-09T05:05:51;17.23;;;12.85;;
59468;SDS011;45277;52.768;18.262;2022-07-09T05:07:30;19.88;;;15.48;;
59468;SDS011;45277;52.768;18.262;2022-07-09T05:09:02;11.95;;;7.55;;
59468;SDS011;45277;52.768;18.262;2022-07-09T05:10:35;10.13;;;5.78;;
59468;SDS011;45277;52.768;18.262;2022-07-09T05:12:07;14.48;;;10.60;;
59468;SDS011;45277;52.768;18.262;2022-07-09T05:13:49;14.13;;;8.93;;
59468;SDS011;45277;52.768;18.262;2022-07-09T05:15:21;6.93;;;5.35;;
59468;SDS011;45277;52.768;18.262;2022-07-09T05:16:53;10.65;;;6.60;;
59468;SDS011;45277;52.768;18.262;2022-07-09T05:18:26;6.93;;;4.95;;
59468;SDS011;45277;52.768;18.262;2022-07-09T05:20:02;9.27;;;7.30;;
59468;SDS011;45277;52.768;18.262;2022-07-09T05:21:34;13.75;;;10.75;;
59468;SDS011;45277;52.768;18.262;2022-07-09T05:23:07;17.80;;;14.07;;
59468;SDS011;45277;52.768;18.262;2022-07-09T05:24:38;17.23;;;12.60;;
59468;SDS011;45277;52.768;18.262;2022-07-09T05:26:11;32.00;;;26.45;;
59468;SDS011;45277;52.768;18.262;2022-07-09T05:27:43;24.55;;;17.65;;
59468;SDS011;45277;52.768;18.262;2022-07-09T05:29:16;32.70;;;26.95;;
59468;SDS011;45277;52.768;18.262;2022-07-09T05:30:48;15.98;;;13.05;;
59468;SDS011;45277;52.768;18.262;2022-07-09T05:32:19;13.27;;;9.98;;
59468;SDS011;45277;52.768;18.262;2022-07-09T05:33:51;14.30;;;10.95;;
59468;SDS011;45277;52.768;18.262;2022-07-09T05:35:22;18.55;;;15.32;;
59468;SDS011;45277;52.768;18.262;2022-07-09T05:36:55;10.68;;;4.75;;
59468;SDS011;45277;52.768;18.262;2022-07-09T05:38:27;7.38;;;4.10;;
59468;SDS011;45277;52.768;18.262;2022-07-09T05:39:59;7.40;;;4.03;;
59468;SDS011;45277;52.768;18.262;2022-07-09T05:41:36;7.35;;;3.78;;
59468;SDS011;45277;52.768;18.262;2022-07-09T05:43:09;9.80;;;4.03;;
59468;SDS011;45277;52.768;18.262;2022-07-09T05:44:41;6.78;;;3.83;;
59468;SDS011;45277;52.768;18.262;2022-07-09T05:46:12;9.07;;;5.35;;
59468;SDS011;45277;52.768;18.262;2022-07-09T05:47:45;25.48;;;22.65;;
59468;SDS011;45277;52.768;18.262;2022-07-09T05:49:17;19.10;;;15.93;;
59468;SDS011;45277;52.768;18.262;2022-07-09T05:50:50;4.95;;;3.50;;
59468;SDS011;45277;52.768;18.262;2022-07-09T05:52:21;11.90;;;4.53;;
59468;SDS011;45277;52.768;18.262;2022-07-09T05:53:54;5.90;;;3.78;;
59468;SDS011;45277;52.768;18.262;2022-07-09T05:55:31;7.82;;;3.80;;
59468;SDS011;45277;52.768;18.262;2022-07-09T05:57:03;9.20;;;4.13;;
59468;SDS011;45277;52.768;18.262;2022-07-09T05:58:34;7.07;;;4.55;;
59468;SDS011;45277;52.768;18.262;2022-07-09T06:00:10;7.78;;;4.47;;
59468;SDS011;45277;52.768;18.262;2022-07-09T06:01:43;5.60;;;3.63;;
59468;SDS011;45277;52.768;18.262;2022-07-09T06:03:16;7.78;;;3.60;;
59468;SDS011;45277;52.768;18.262;2022-07-09T06:04:48;6.68;;;3.95;;
59468;SDS011;45277;52.768;18.262;2022-07-09T06:06:21;5.85;;;3.58;;
59468;SDS011;45277;52.768;18.262;2022-07-09T06:07:54;7.68;;;3.60;;
59468;SDS011;45277;52.768;18.262;2022-07-09T06:09:26;5.88;;;3.80;;
59468;SDS011;45277;52.768;18.262;2022-07-09T06:10:59;5.00;;;3.80;;
59468;SDS011;45277;52.768;18.262;2022-07-09T06:12:31;7.93;;;4.40;;
59468;SDS011;45277;52.768;18.262;2022-07-09T06:14:16;8.00;;;5.30;;
59468;SDS011;45277;52.768;18.262;2022-07-09T06:15:49;16.70;;;4.95;;
59468;SDS011;45277;52.768;18.262;2022-07-09T06:17:24;7.07;;;4.38;;
59468;SDS011;45277;52.768;18.262;2022-07-09T06:18:57;7.07;;;4.15;;
59468;SDS011;45277;52.768;18.262;2022-07-09T06:20:30;9.75;;;5.20;;
59468;SDS011;45277;52.768;18.262;2022-07-09T06:22:02;8.23;;;4.60;;
59468;SDS011;45277;52.768;18.262;2022-07-09T06:23:35;10.50;;;5.72;;
59468;SDS011;45277;52.768;18.262;2022-07-09T06:25:08;6.70;;;5.03;;
59468;SDS011;45277;52.768;18.262;2022-07-09T06:26:40;9.07;;;5.38;;
59468;SDS011;45277;52.768;18.262;2022-07-09T06:28:12;7.72;;;4.00;;
59468;SDS011;45277;52.768;18.262;2022-07-09T06:29:47;10.80;;;4.35;;
59468;SDS011;45277;52.768;18.262;2022-07-09T06:31:19;7.80;;;4.10;;
59468;SDS011;45277;52.768;18.262;2022-07-09T06:32:52;5.38;;;3.42;;
59468;SDS011;45277;52.768;18.262;2022-07-09T06:34:23;9.00;;;4.10;;
59468;SDS011;45277;52.768;18.262;2022-07-09T06:35:55;6.70;;;3.70;;
59468;SDS011;45277;52.768;18.262;2022-07-09T06:37:27;12.05;;;4.07;;
59468;SDS011;45277;52.768;18.262;2022-07-09T06:39:00;6.65;;;3.92;;
59468;SDS011;45277;52.768;18.262;2022-07-09T06:40:49;9.88;;;4.03;;
59468;SDS011;45277;52.768;18.262;2022-07-09T06:42:26;4.80;;;3.72;;
59468;SDS011;45277;52.768;18.262;2022-07-09T06:43:58;7.93;;;3.67;;
59468;SDS011;45277;52.768;18.262;2022-07-09T06:45:30;7.10;;;3.22;;
59468;SDS011;45277;52.768;18.262;2022-07-09T06:47:03;5.18;;;3.58;;
59468;SDS011;45277;52.768;18.262;2022-07-09T06:48:35;4.90;;;3.83;;
59468;SDS011;45277;52.768;18.262;2022-07-09T06:50:07;6.72;;;3.97;;
59468;SDS011;45277;52.768;18.262;2022-07-09T06:51:40;5.53;;;3.85;;
59468;SDS011;45277;52.768;18.262;2022-07-09T06:53:12;8.15;;;4.55;;
59468;SDS011;45277;52.768;18.262;2022-07-09T06:54:44;10.15;;;4.78;;
59468;SDS011;45277;52.768;18.262;2022-07-09T06:56:16;9.48;;;5.60;;
59468;SDS011;45277;52.768;18.262;2022-07-09T06:57:48;8.95;;;5.15;;
59468;SDS011;45277;52.768;18.262;2022-07-09T06:59:20;7.82;;;4.85;;
59468;SDS011;45277;52.768;18.262;2022-07-09T07:00:54;7.40;;;4.22;;
59468;SDS011;45277;52.768;18.262;2022-07-09T07:02:38;7.53;;;4.25;;
59468;SDS011;45277;52.768;18.262;2022-07-09T07:04:16;7.30;;;4.47;;
59468;SDS011;45277;52.768;18.262;2022-07-09T07:05:49;7.53;;;5.30;;
59468;SDS011;45277;52.768;18.262;2022-07-09T07:07:21;8.50;;;5.07;;
59468;SDS011;45277;52.768;18.262;2022-07-09T07:08:53;12.80;;;4.70;;
59468;SDS011;45277;52.768;18.262;2022-07-09T07:10:27;9.98;;;5.13;;
59468;SDS011;45277;52.768;18.262;2022-07-09T07:12:01;6.00;;;4.25;;
59468;SDS011;45277;52.768;18.262;2022-07-09T07:13:32;8.00;;;4.90;;
59468;SDS011;45277;52.768;18.262;2022-07-09T07:15:05;10.80;;;5.30;;
59468;SDS011;45277;52.768;18.262;2022-07-09T07:16:37;11.93;;;5.95;;
59468;SDS011;45277;52.768;18.262;2022-07-09T07:18:10;8.77;;;5.15;;
59468;SDS011;45277;52.768;18.262;2022-07-09T07:19:41;10.27;;;5.88;;
59468;SDS011;45277;52.768;18.262;2022-07-09T07:21:13;8.07;;;6.10;;
59468;SDS011;45277;52.768;18.262;2022-07-09T07:22:46;8.23;;;6.15;;
59468;SDS011;45277;52.768;18.262;2022-07-09T07:24:19;9.05;;;5.93;;
59468;SDS011;45277;52.768;18.262;2022-07-09T07:25:50;8.98;;;6.63;;
59468;SDS011;45277;52.768;18.262;2022-07-09T07:27:22;19.45;;;14.32;;
59468;SDS011;45277;52.768;18.262;2022-07-09T07:28:55;14.38;;;12.68;;
59468;SDS011;45277;52.768;18.262;2022-07-09T07:30:29;10.40;;;8.00;;
59468;SDS011;45277;52.768;18.262;2022-07-09T07:32:03;11.27;;;6.85;;
59468;SDS011;45277;52.768;18.262;2022-07-09T07:33:48;7.20;;;6.00;;
59468;SDS011;45277;52.768;18.262;2022-07-09T07:35:22;16.27;;;11.88;;
59468;SDS011;45277;52.768;18.262;2022-07-09T07:36:54;18.70;;;14.32;;
59468;SDS011;45277;52.768;18.262;2022-07-09T07:38:27;14.77;;;11.55;;
59468;SDS011;45277;52.768;18.262;2022-07-09T07:40:01;9.50;;;6.32;;
59468;SDS011;45277;52.768;18.262;2022-07-09T07:41:32;9.32;;;6.60;;
59468;SDS011;45277;52.768;18.262;2022-07-09T07:43:05;9.05;;;5.90;;
59468;SDS011;45277;52.768;18.262;2022-07-09T07:44:36;7.18;;;5.63;;
59468;SDS011;45277;52.768;18.262;2022-07-09T07:46:08;9.70;;;5.93;;
59468;SDS011;45277;52.768;18.262;2022-07-09T07:47:41;8.77;;;5.78;;
59468;SDS011;45277;52.768;18.262;2022-07-09T07:49:12;11.13;;;6.00;;
59468;SDS011;45277;52.768;18.262;2022-07-09T07:50:44;8.02;;;5.70;;
59468;SDS011;45277;52.768;18.262;2022-07-09T07:52:15;11.23;;;5.22;;
59468;SDS011;45277;52.768;18.262;2022-07-09T07:53:48;9.07;;;4.53;;
59468;SDS011;45277;52.768;18.262;2022-07-09T07:55:22;8.43;;;5.88;;
59468;SDS011;45277;52.768;18.262;2022-07-09T07:56:55;8.95;;;4.90;;
59468;SDS011;45277;52.768;18.262;2022-07-09T07:58:26;8.30;;;5.50;;
59468;SDS011;45277;52.768;18.262;2022-07-09T07:59:59;6.32;;;4.78;;
59468;SDS011;45277;52.768;18.262;2022-07-09T08:01:32;8.52;;;4.93;;
59468;SDS011;45277;52.768;18.262;2022-07-09T08:03:03;10.23;;;5.93;;
59468;SDS011;45277;52.768;18.262;2022-07-09T08:04:37;6.93;;;4.93;;
59468;SDS011;45277;52.768;18.262;2022-07-09T08:06:09;7.63;;;4.93;;
59468;SDS011;45277;52.768;18.262;2022-07-09T08:07:40;6.07;;;4.63;;
59468;SDS011;45277;52.768;18.262;2022-07-09T08:09:12;9.50;;;5.07;;
59468;SDS011;45277;52.768;18.262;2022-07-09T08:10:46;9.25;;;5.45;;
59468;SDS011;45277;52.768;18.262;2022-07-09T08:12:20;9.77;;;5.38;;
59468;SDS011;45277;52.768;18.262;2022-07-09T08:15:28;5.63;;;4.40;;
59468;SDS011;45277;52.768;18.262;2022-07-09T08:17:00;9.93;;;5.28;;
59468;SDS011;45277;52.768;18.262;2022-07-09T08:18:32;7.80;;;5.53;;
59468;SDS011;45277;52.768;18.262;2022-07-09T08:20:09;12.23;;;5.85;;
59468;SDS011;45277;52.768;18.262;2022-07-09T08:21:41;11.05;;;5.88;;
59468;SDS011;45277;52.768;18.262;2022-07-09T08:23:14;11.75;;;7.28;;
59468;SDS011;45277;52.768;18.262;2022-07-09T08:24:46;10.98;;;5.72;;
59468;SDS011;45277;52.768;18.262;2022-07-09T08:26:18;9.13;;;5.32;;
59468;SDS011;45277;52.768;18.262;2022-07-09T08:27:51;7.65;;;6.57;;
59468;SDS011;45277;52.768;18.262;2022-07-09T08:29:30;7.80;;;5.10;;
59468;SDS011;45277;52.768;18.262;2022-07-09T08:31:02;7.82;;;4.70;;
59468;SDS011;45277;52.768;18.262;2022-07-09T08:32:35;10.25;;;4.82;;
59468;SDS011;45277;52.768;18.262;2022-07-09T08:34:09;10.00;;;4.70;;
59468;SDS011;45277;52.768;18.262;2022-07-09T08:35:42;5.57;;;4.45;;
59468;SDS011;45277;52.768;18.262;2022-07-09T08:37:15;6.38;;;4.13;;
59468;SDS011;45277;52.768;18.262;2022-07-09T08:38:46;6.50;;;4.40;;
59468;SDS011;45277;52.768;18.262;2022-07-09T08:40:20;5.35;;;3.63;;
59468;SDS011;45277;52.768;18.262;2022-07-09T08:41:54;8.23;;;4.65;;
59468;SDS011;45277;52.768;18.262;2022-07-09T08:43:26;9.20;;;4.13;;
59468;SDS011;45277;52.768;18.262;2022-07-09T08:44:57;10.32;;;5.40;;
59468;SDS011;45277;52.768;18.262;2022-07-09T08:46:33;8.55;;;4.55;;
59468;SDS011;45277;52.768;18.262;2022-07-09T08:48:06;6.70;;;4.97;;
59468;SDS011;45277;52.768;18.262;2022-07-09T08:49:44;10.77;;;4.30;;
59468;SDS011;45277;52.768;18.262;2022-07-09T08:51:18;7.80;;;5.00;;
59468;SDS011;45277;52.768;18.262;2022-07-09T08:52:52;7.50;;;4.30;;
59468;SDS011;45277;52.768;18.262;2022-07-09T08:54:26;5.03;;;4.32;;
59468;SDS011;45277;52.768;18.262;2022-07-09T08:55:58;10.48;;;4.05;;
59468;SDS011;45277;52.768;18.262;2022-07-09T08:57:30;7.55;;;4.07;;
59468;SDS011;45277;52.768;18.262;2022-07-09T08:59:02;5.50;;;4.03;;
59468;SDS011;45277;52.768;18.262;2022-07-09T09:00:35;6.80;;;4.72;;
59468;SDS011;45277;52.768;18.262;2022-07-09T09:02:06;6.88;;;3.70;;
59468;SDS011;45277;52.768;18.262;2022-07-09T09:03:43;5.38;;;4.10;;
59468;SDS011;45277;52.768;18.262;2022-07-09T09:05:15;11.43;;;5.55;;
59468;SDS011;45277;52.768;18.262;2022-07-09T09:06:50;9.00;;;6.00;;
59468;SDS011;45277;52.768;18.262;2022-07-09T09:08:21;11.75;;;4.85;;
59468;SDS011;45277;52.768;18.262;2022-07-09T09:09:54;7.05;;;4.43;;
59468;SDS011;45277;52.768;18.262;2022-07-09T09:11:25;6.50;;;3.92;;
59468;SDS011;45277;52.768;18.262;2022-07-09T09:13:00;7.80;;;3.95;;